Time;durP1;ratioP1;P1;durP2;ratioP2;P2;SDS_P1;SDS_P2;PMS_P1;PMS_P2;Temp;Humidity;BMP_temperature;BMP_pressure;BME280_temperature;BME280_humidity;BME280_pressure;Samples;Min_cycle;Max_cycle;Signal;HPM_P1;HPM_P2
2022/10/26 00:02:03;;;;;;;16.50;10.50;;;;;;;9.25;100.00;101743.56;4950516;29;20209;-75
2022/10/26 00:04:28;;;;;;;12.50;9.60;;;;;;;9.26;100.00;101737.66;4951587;28;20725;-76
2022/10/26 00:06:54;;;;;;;15.20;9.50;;;;;;;9.23;100.00;101746.09;4950251;29;20277;-77
2022/10/26 00:09:19;;;;;;;14.33;9.07;;;;;;;9.19;100.00;101741.66;4951700;28;20200;-76
2022/10/26 00:11:45;;;;;;;15.77;10.73;;;;;;;9.18;100.00;101752.72;4951286;28;20300;-75
2022/10/26 00:14:10;;;;;;;12.27;9.67;;;;;;;9.17;100.00;101733.06;4950224;29;20197;-77
2022/10/26 00:16:35;;;;;;;14.67;10.13;;;;;;;9.14;100.00;101744.84;4949429;28;20197;-76
2022/10/26 00:19:01;;;;;;;15.00;9.37;;;;;;;9.15;100.00;101744.03;4952296;29;20193;-75
2022/10/26 00:21:26;;;;;;;13.20;9.13;;;;;;;9.14;100.00;101748.28;4952242;28;20353;-75
2022/10/26 00:23:51;;;;;;;14.37;9.50;;;;;;;9.15;100.00;101744.03;4951564;29;20197;-76
2022/10/26 00:26:17;;;;;;;13.40;8.43;;;;;;;9.13;100.00;101740.56;4949136;29;20248;-76
2022/10/26 00:28:42;;;;;;;12.53;8.97;;;;;;;9.13;100.00;101740.56;4950403;29;20267;-76
2022/10/26 00:31:12;;;;;;;11.20;8.87;;;;;;;9.14;100.00;101749.97;4950157;29;20258;-77
2022/10/26 00:33:38;;;;;;;16.40;8.53;;;;;;;9.06;100.00;101741.09;4950568;29;20229;-76
2022/10/26 00:36:03;;;;;;;13.30;8.50;;;;;;;9.04;100.00;101742.75;4951387;28;20189;-75
2022/10/26 00:38:30;;;;;;;10.83;9.00;;;;;;;9.05;100.00;101742.81;4951039;28;20193;-76
2022/10/26 00:40:55;;;;;;;14.03;8.47;;;;;;;9.03;100.00;101744.41;4951170;28;20216;-76
2022/10/26 00:43:20;;;;;;;10.10;8.27;;;;;;;9.01;100.00;101742.59;4951350;28;20562;-77
2022/10/26 00:45:49;;;;;;;10.57;8.37;;;;;;;9.01;100.00;101746.06;4965552;28;20221;-76
2022/10/26 00:48:29;;;;;;;10.37;7.70;;;;;;;8.88;100.00;101737.81;4950339;29;20663;-77
2022/10/26 00:50:57;;;;;;;10.47;8.30;;;;;;;8.79;100.00;101748.53;4952488;28;20220;-76
2022/10/26 00:53:23;;;;;;;10.27;7.63;;;;;;;8.71;100.00;101749.91;4952233;28;20357;-75
2022/10/26 00:55:51;;;;;;;11.60;7.77;;;;;;;8.62;100.00;101741.84;4951513;28;20230;-77
2022/10/26 00:58:17;;;;;;;10.20;7.13;;;;;;;8.71;100.00;101737.13;4947411;29;20247;-75
2022/10/26 01:00:43;;;;;;;9.53;7.00;;;;;;;8.74;100.00;101738.94;4951952;29;20192;-76
2022/10/26 01:03:09;;;;;;;7.47;6.53;;;;;;;8.65;100.00;101738.56;4955218;28;20193;-75
2022/10/26 01:05:37;;;;;;;11.37;7.50;;;;;;;8.61;100.00;101735.03;4952111;28;20628;-75
2022/10/26 01:08:03;;;;;;;10.07;7.60;;;;;;;8.62;99.70;101744.41;4954540;29;20285;-76
2022/10/26 01:10:29;;;;;;;10.30;6.90;;;;;;;8.55;100.00;101744.09;4953327;28;20296;-76
2022/10/26 01:12:57;;;;;;;11.23;8.07;;;;;;;8.56;100.00;101749.28;4953175;28;20216;-76
2022/10/26 01:15:32;;;;;;;11.03;7.70;;;;;;;8.52;100.00;101734.63;4954891;28;20228;-77
2022/10/26 01:18:24;;;;;;;10.40;6.87;;;;;;;8.52;100.00;101741.44;4951584;29;20192;-76
2022/10/26 01:21:15;;;;;;;10.10;7.20;;;;;;;8.52;100.00;101739.75;4947647;29;20220;-76
2022/10/26 01:23:51;;;;;;;17.77;7.70;;;;;;;8.64;100.00;101742.81;4951550;29;20196;-77
2022/10/26 01:26:42;;;;;;;10.80;7.53;;;;;;;8.71;100.00;101741.38;4954651;28;20213;-77
2022/10/26 01:29:32;;;;;;;8.33;6.70;;;;;;;8.63;100.00;101738.53;4951804;29;20197;-75
2022/10/26 01:32:12;;;;;;;12.30;7.13;;;;;;;8.57;100.00;101735.69;4950194;28;20702;-77
2022/10/26 01:34:47;;;;;;;9.90;6.60;;;;;;;8.46;100.00;101736.94;4950824;29;20657;-77
2022/10/26 01:37:27;;;;;;;9.20;7.13;;;;;;;8.45;100.00;101732.66;4950451;29;20666;-76
2022/10/26 01:40:02;;;;;;;9.13;7.60;;;;;;;8.40;100.00;101736.69;4942068;29;20186;-77
2022/10/26 01:42:29;;;;;;;11.23;7.10;;;;;;;8.33;100.00;101737.22;4949233;29;20235;-76
2022/10/26 01:45:07;;;;;;;8.93;6.60;;;;;;;8.36;100.00;101739.03;4951567;29;20881;-76
2022/10/26 01:47:36;;;;;;;10.43;7.00;;;;;;;8.33;100.00;101734.66;4943258;29;20287;-76
2022/10/26 01:50:03;;;;;;;11.03;6.77;;;;;;;8.31;100.00;101735.41;4952739;29;20201;-76
2022/10/26 01:52:28;;;;;;;9.80;7.13;;;;;;;8.33;100.00;101744.00;4947165;28;20216;-75
2022/10/26 01:55:01;;;;;;;9.30;6.80;;;;;;;8.33;100.00;101749.09;4942657;28;20189;-76
2022/10/26 01:57:33;;;;;;;9.37;6.30;;;;;;;8.24;100.00;101744.47;4945360;29;20189;-77
2022/10/26 02:00:02;;;;;;;9.00;7.27;;;;;;;8.23;100.00;101742.75;4952043;28;20260;-77
2022/10/26 02:02:36;;;;;;;11.37;8.47;;;;;;;8.40;100.00;101735.81;4950796;29;20315;-75
2022/10/26 02:05:13;;;;;;;17.03;7.87;;;;;;;8.44;100.00;101737.69;4952738;28;20236;-76
2022/10/26 02:08:17;;;;;;;11.30;8.00;;;;;;;8.48;100.00;101732.75;4949984;29;20204;-74
2022/10/26 02:10:58;;;;;;;9.50;8.07;;;;;;;8.48;100.00;101735.31;4947158;28;20196;-76
2022/10/26 02:13:28;;;;;;;11.50;8.17;;;;;;;8.39;100.00;101737.47;4951359;29;20196;-76
2022/10/26 02:16:16;;;;;;;16.20;8.23;;;;;;;8.33;100.00;101733.78;4962273;28;20249;-76
2022/10/26 02:19:04;;;;;;;11.83;8.23;;;;;;;8.34;100.00;101733.00;4945051;29;20232;-76
2022/10/26 02:21:45;;;;;;;11.00;8.37;;;;;;;8.35;100.00;101735.63;4947407;29;20572;-75
2022/10/26 02:24:14;;;;;;;14.17;8.43;;;;;;;8.40;100.00;101725.59;4951702;29;20468;-77
2022/10/26 02:26:42;;;;;;;20.20;8.73;;;;;;;8.38;100.00;101729.78;4950838;28;20196;-77
2022/10/26 02:29:12;;;;;;;12.47;8.03;;;;;;;8.34;100.00;101725.34;4950211;29;20189;-76
2022/10/26 02:31:41;;;;;;;15.53;9.17;;;;;;;8.29;100.00;101726.84;4953252;28;20209;-76
2022/10/26 02:34:10;;;;;;;14.73;9.57;;;;;;;8.26;100.00;101724.16;4949013;29;20188;-77
2022/10/26 02:36:40;;;;;;;12.83;8.50;;;;;;;8.17;100.00;101724.59;4965856;28;20197;-77
2022/10/26 02:39:07;;;;;;;15.23;8.23;;;;;;;8.14;100.00;101726.13;4951948;29;20193;-77
2022/10/26 02:41:33;;;;;;;14.03;8.87;;;;;;;8.12;100.00;101730.31;4949937;28;20271;-76
2022/10/26 02:44:12;;;;;;;15.67;8.53;;;;;;;8.07;100.00;101729.25;4953000;28;20197;-76
2022/10/26 02:46:38;;;;;;;18.67;8.87;;;;;;;8.06;100.00;101718.16;4947892;29;20232;-75
2022/10/26 02:49:04;;;;;;;15.50;9.23;;;;;;;8.03;100.00;101725.69;4951814;29;20200;-76
2022/10/26 02:51:39;;;;;;;11.90;8.97;;;;;;;8.06;100.00;101723.25;4952349;29;20217;-75
2022/10/26 02:54:15;;;;;;;12.17;8.13;;;;;;;8.03;100.00;101719.69;4949158;29;20188;-74
2022/10/26 02:56:50;;;;;;;11.90;8.17;;;;;;;8.03;100.00;101719.69;4953016;28;20197;-74
2022/10/26 02:59:18;;;;;;;15.20;8.67;;;;;;;7.94;100.00;101716.75;4950966;29;20196;-74
2022/10/26 03:01:44;;;;;;;14.87;8.47;;;;;;;7.90;100.00;101717.41;4952996;28;20223;-75
2022/10/26 03:04:09;;;;;;;12.13;8.60;;;;;;;7.88;100.00;101719.91;4952165;28;20682;-76
2022/10/26 03:06:35;;;;;;;11.97;7.93;;;;;;;7.91;100.00;101720.03;4948408;29;20204;-75
2022/10/26 03:09:00;;;;;;;10.40;7.47;;;;;;;7.84;100.00;101718.00;4949819;29;20272;-76
2022/10/26 03:11:25;;;;;;;10.20;7.57;;;;;;;7.87;100.00;101717.31;4951372;28;20220;-75
2022/10/26 03:13:51;;;;;;;9.63;7.33;;;;;;;7.89;100.00;101711.47;4947541;28;20193;-74
2022/10/26 03:16:16;;;;;;;11.77;7.30;;;;;;;7.92;100.00;101715.81;4952214;28;20201;-74
2022/10/26 03:18:42;;;;;;;11.63;7.30;;;;;;;7.86;100.00;101710.44;4952697;28;20185;-74
2022/10/26 03:21:07;;;;;;;9.07;6.97;;;;;;;7.90;100.00;101702.13;4952560;28;20703;-74
2022/10/26 03:23:33;;;;;;;12.93;7.70;;;;;;;7.84;100.00;101714.63;4950228;28;20189;-76
2022/10/26 03:25:59;;;;;;;11.00;6.83;;;;;;;7.81;100.00;101717.91;4952313;28;20213;-75
2022/10/26 03:28:25;;;;;;;9.03;7.17;;;;;;;7.82;100.00;101711.09;4952391;28;20197;-76
2022/10/26 03:30:50;;;;;;;12.37;7.93;;;;;;;7.78;100.00;101710.09;4951444;28;20193;-76
2022/10/26 03:33:16;;;;;;;10.07;7.97;;;;;;;7.79;100.00;101708.44;4950934;28;20185;-74
2022/10/26 03:35:41;;;;;;;12.50;8.23;;;;;;;7.78;100.00;101712.66;4952368;28;20220;-76
2022/10/26 03:38:07;;;;;;;18.03;9.23;;;;;;;7.76;100.00;101710.84;4951771;28;20723;-76
2022/10/26 03:40:34;;;;;;;17.90;9.47;;;;;;;7.74;100.00;101707.38;4950563;28;20309;-75
2022/10/26 03:42:59;;;;;;;12.93;8.70;;;;;;;7.75;100.00;101707.44;4949601;29;20221;-76
2022/10/26 03:45:25;;;;;;;16.50;9.37;;;;;;;7.74;100.00;101712.47;4950522;28;20225;-76
2022/10/26 03:47:50;;;;;;;15.17;9.93;;;;;;;7.72;100.00;101711.50;4951943;28;20221;-75
2022/10/26 03:50:19;;;;;;;16.53;10.03;;;;;;;7.76;100.00;101714.28;4950199;28;20193;-75
2022/10/26 03:52:46;;;;;;;18.70;11.20;;;;;;;7.77;100.00;101710.03;4959464;28;20209;-78
2022/10/26 03:55:11;;;;;;;16.60;9.30;;;;;;;7.76;100.00;101708.28;4952299;28;20189;-77
2022/10/26 03:57:44;;;;;;;16.17;9.33;;;;;;;7.65;100.00;101714.59;4949102;28;20189;-77
2022/10/26 04:00:14;;;;;;;14.63;9.23;;;;;;;7.65;100.00;101706.97;4949839;29;20189;-77
2022/10/26 04:02:41;;;;;;;16.73;10.00;;;;;;;7.65;100.00;101706.97;4949399;28;20205;-77
2022/10/26 04:05:07;;;;;;;23.87;10.67;;;;;;;7.62;100.00;101715.34;4949736;28;20220;-76
2022/10/26 04:07:33;;;;;;;12.67;9.37;;;;;;;7.65;100.00;101710.34;4950562;28;20189;-77
2022/10/26 04:09:58;;;;;;;16.10;10.20;;;;;;;7.70;100.00;101718.22;4946652;29;20572;-76
2022/10/26 04:12:23;;;;;;;27.90;10.83;;;;;;;7.67;100.00;101716.41;4951701;28;20216;-76
2022/10/26 04:14:49;;;;;;;13.73;9.30;;;;;;;7.65;100.00;101712.06;4947975;29;20201;-77
2022/10/26 04:17:14;;;;;;;21.00;10.23;;;;;;;7.63;100.00;101711.97;4961757;28;20338;-76
2022/10/26 04:19:39;;;;;;;17.90;10.73;;;;;;;7.65;100.00;101712.91;4954148;28;20208;-77
2022/10/26 04:22:05;;;;;;;21.53;9.87;;;;;;;7.64;100.00;101707.78;4948362;28;20225;-77
2022/10/26 04:24:30;;;;;;;15.77;10.07;;;;;;;7.62;100.00;101709.34;4949152;28;20312;-77
2022/10/26 04:26:56;;;;;;;16.10;10.97;;;;;;;7.60;100.00;101706.72;4964063;28;20192;-76
2022/10/26 04:29:21;;;;;;;17.17;10.67;;;;;;;7.65;100.00;101705.25;4945498;28;20197;-76
2022/10/26 04:31:47;;;;;;;14.07;10.67;;;;;;;7.63;100.00;101706.00;4948366;29;20292;-77
2022/10/26 04:34:13;;;;;;;26.33;11.97;;;;;;;7.64;100.00;101707.78;4948456;28;20558;-77
2022/10/26 04:36:38;;;;;;;14.03;10.43;;;;;;;7.62;100.00;101707.69;4942738;28;20616;-77
2022/10/26 04:39:03;;;;;;;21.60;11.23;;;;;;;7.60;100.00;101701.63;4950237;28;20196;-77
2022/10/26 04:41:29;;;;;;;17.17;9.60;;;;;;;7.60;100.00;101701.63;4945895;28;20255;-77
2022/10/26 04:43:54;;;;;;;15.57;11.23;;;;;;;7.57;100.00;101705.72;4942889;29;20703;-75
2022/10/26 04:46:19;;;;;;;17.90;10.37;;;;;;;7.53;100.00;101697.09;4949659;29;20227;-77
2022/10/26 04:48:47;;;;;;;14.80;10.10;;;;;;;7.52;100.00;101707.22;4945363;28;20194;-77
2022/10/26 04:51:12;;;;;;;15.13;10.00;;;;;;;7.50;100.00;101708.78;4949946;28;20221;-75
2022/10/26 04:53:38;;;;;;;20.03;12.57;;;;;;;7.48;100.00;101698.56;4949084;28;20248;-77
2022/10/26 04:56:03;;;;;;;16.77;11.43;;;;;;;7.42;100.00;101694.84;4946806;29;20185;-76
2022/10/26 04:58:29;;;;;;;16.10;10.73;;;;;;;7.43;100.00;101689.84;4946673;28;20203;-74
2022/10/26 05:00:55;;;;;;;18.27;11.20;;;;;;;7.40;100.00;101693.91;4943763;28;20194;-77
2022/10/26 05:03:21;;;;;;;18.20;11.27;;;;;;;7.36;100.00;101692.00;4950252;28;20236;-76
2022/10/26 05:05:46;;;;;;;16.03;11.67;;;;;;;7.36;100.00;101698.00;4945713;28;20651;-75
2022/10/26 05:08:13;;;;;;;24.70;12.07;;;;;;;7.36;100.00;101699.66;4949925;29;20288;-76
2022/10/26 05:10:38;;;;;;;18.87;11.63;;;;;;;7.32;100.00;101698.66;4941795;28;20535;-77
2022/10/26 05:13:04;;;;;;;20.33;12.30;;;;;;;7.30;100.00;101692.63;4947143;29;20192;-76
2022/10/26 05:15:29;;;;;;;17.80;12.20;;;;;;;7.28;100.00;101685.72;4945831;28;20197;-75
2022/10/26 05:18:01;;;;;;;18.77;12.57;;;;;;;7.22;100.00;101688.84;4948360;29;20217;-76
2022/10/26 05:20:30;;;;;;;18.53;11.90;;;;;;;7.19;100.00;101680.19;4944779;29;20244;-75
2022/10/26 05:23:00;;;;;;;19.23;12.37;;;;;;;7.18;100.00;101689.50;4950058;29;20244;-75
2022/10/26 05:25:27;;;;;;;18.50;12.33;;;;;;;7.17;100.00;101687.75;4950470;28;20217;-76
2022/10/26 05:28:05;;;;;;;21.30;12.20;;;;;;;7.15;100.00;101691.03;4944957;28;20194;-76
2022/10/26 05:30:31;;;;;;;19.53;11.87;;;;;;;7.15;100.00;101683.41;4930172;28;20994;-76
2022/10/26 05:32:57;;;;;;;19.97;12.03;;;;;;;7.17;100.00;101681.78;4945765;29;20232;-75
2022/10/26 05:35:24;;;;;;;19.37;12.27;;;;;;;7.13;100.00;101679.88;4945983;28;20330;-76
2022/10/26 05:37:50;;;;;;;22.20;14.50;;;;;;;7.10;100.00;101692.50;4948075;28;20242;-76
2022/10/26 05:40:16;;;;;;;23.13;13.80;;;;;;;7.09;100.00;101694.16;4945844;28;20300;-75
2022/10/26 05:42:42;;;;;;;16.90;11.80;;;;;;;7.05;100.00;101693.97;4947208;29;20734;-76
2022/10/26 05:45:08;;;;;;;19.13;13.37;;;;;;;7.02;100.00;101689.59;4948020;28;20215;-76
2022/10/26 05:47:38;;;;;;;22.93;14.07;;;;;;;6.98;100.00;101686.81;4925612;28;20646;-73
2022/10/26 05:50:04;;;;;;;18.30;12.27;;;;;;;6.99;100.00;101693.66;4952717;28;20197;-75
2022/10/26 05:52:30;;;;;;;18.60;13.50;;;;;;;7.04;100.00;101695.63;4938797;29;20223;-74
2022/10/26 05:54:55;;;;;;;22.90;13.00;;;;;;;6.98;100.00;101694.47;4942363;28;20193;-75
2022/10/26 05:57:21;;;;;;;29.00;13.93;;;;;;;6.98;100.00;101695.34;4951636;28;20189;-75
2022/10/26 05:59:46;;;;;;;20.87;13.03;;;;;;;6.98;100.00;101700.44;4951855;28;20651;-76
2022/10/26 06:02:25;;;;;;;18.87;12.37;;;;;;;6.94;100.00;101707.84;4951136;28;20213;-75
2022/10/26 06:04:52;;;;;;;23.57;13.23;;;;;;;6.96;100.00;101711.34;4951569;29;20243;-76
2022/10/26 06:07:19;;;;;;;28.30;13.63;;;;;;;6.92;100.00;101707.78;4941976;29;20196;-76
2022/10/26 06:09:46;;;;;;;25.53;14.13;;;;;;;6.95;100.00;101713.00;4934861;29;20291;-76
2022/10/26 06:12:12;;;;;;;30.23;15.10;;;;;;;6.96;100.00;101714.75;4952961;28;20213;-76
2022/10/26 06:14:38;;;;;;;26.27;15.33;;;;;;;7.05;100.00;101711.78;4951802;28;20199;-76
2022/10/26 06:17:22;;;;;;;29.47;15.63;;;;;;;7.08;100.00;101709.38;4951257;28;20193;-75
2022/10/26 06:20:37;;;;;;;30.40;15.87;;;;;;;7.12;100.00;101711.25;4950586;28;20580;-76
2022/10/26 06:23:02;;;;;;;29.63;14.00;;;;;;;7.13;100.00;101716.44;4949983;28;20268;-76
2022/10/26 06:25:27;;;;;;;32.20;14.50;;;;;;;7.13;100.00;101716.44;4953317;28;20212;-75
2022/10/26 06:28:18;;;;;;;34.93;14.87;;;;;;;7.21;100.00;101716.78;4951774;28;20278;-74
2022/10/26 06:30:43;;;;;;;37.07;14.37;;;;;;;7.23;100.00;101720.28;4950236;29;20236;-75
2022/10/26 06:33:11;;;;;;;33.27;15.27;;;;;;;7.24;100.00;101727.13;4952250;28;20216;-76
2022/10/26 06:35:44;;;;;;;34.03;14.90;;;;;;;7.27;100.00;101725.59;4950348;28;20600;-77
2022/10/26 06:38:14;;;;;;;33.50;15.23;;;;;;;7.30;100.00;101725.75;4948020;29;20658;-75
2022/10/26 06:40:42;;;;;;;35.63;14.70;;;;;;;7.31;100.00;101724.94;4952777;28;20291;-76
2022/10/26 06:43:25;;;;;;;24.70;13.33;;;;;;;7.36;100.00;101715.81;4949867;29;20272;-75
2022/10/26 06:46:25;;;;;;;24.33;13.97;;;;;;;7.36;100.00;101720.03;4951542;29;20621;-75
2022/10/26 06:48:58;;;;;;;20.87;12.63;;;;;;;7.40;100.00;101727.91;4926354;28;20249;-75
2022/10/26 06:51:26;;;;;;;20.07;12.43;;;;;;;7.41;100.00;101722.00;4952978;28;20241;-76
2022/10/26 06:54:24;;;;;;;18.50;11.93;;;;;;;7.48;100.00;101725.69;4952817;28;20717;-75
2022/10/26 06:56:51;;;;;;;22.60;12.97;;;;;;;7.54;100.00;101728.50;4949992;28;20200;-76
2022/10/26 06:59:57;;;;;;;23.37;12.10;;;;;;;7.58;100.00;101730.41;4952337;28;20185;-74
2022/10/26 07:02:23;;;;;;;16.93;12.10;;;;;;;7.66;100.00;101734.19;4949051;29;20706;-75
2022/10/26 07:04:48;;;;;;;19.27;13.53;;;;;;;7.73;100.00;101731.97;4952394;28;20225;-75
2022/10/26 07:07:18;;;;;;;19.57;12.70;;;;;;;7.82;100.00;101737.47;4950799;29;20200;-75
2022/10/26 07:09:43;;;;;;;18.47;12.23;;;;;;;7.92;100.00;101731.13;4951451;28;20189;-75
2022/10/26 07:12:09;;;;;;;18.93;12.83;;;;;;;7.99;100.00;101728.03;4952507;28;20209;-75
2022/10/26 07:14:34;;;;;;;17.47;12.00;;;;;;;8.06;100.00;101733.44;4948260;29;20300;-75
2022/10/26 07:17:00;;;;;;;22.63;12.20;;;;;;;8.13;100.00;101729.50;4951170;28;20193;-75
2022/10/26 07:19:25;;;;;;;16.67;11.60;;;;;;;8.20;100.00;101740.06;4947260;28;20193;-75
2022/10/26 07:21:55;;;;;;;14.30;11.03;;;;;;;8.34;100.00;101744.06;4949121;29;20608;-77
2022/10/26 07:24:22;;;;;;;14.10;11.00;;;;;;;8.40;100.00;101740.91;4951530;29;20271;-75
2022/10/26 07:26:47;;;;;;;16.47;12.80;;;;;;;8.55;100.00;101737.31;4948524;29;20280;-75
2022/10/26 07:29:13;;;;;;;15.80;11.93;;;;;;;8.72;100.00;101746.56;4951931;28;20284;-75
2022/10/26 07:31:38;;;;;;;18.00;13.47;;;;;;;8.98;100.00;101739.94;4952040;28;20251;-76
2022/10/26 07:34:04;;;;;;;16.27;12.33;;;;;;;9.23;100.00;101745.22;4952020;28;20192;-76
2022/10/26 07:36:29;;;;;;;16.77;13.13;;;;;;;9.41;100.00;101743.38;4951234;28;20196;-75
2022/10/26 07:38:55;;;;;;;17.60;13.70;;;;;;;9.59;100.00;101742.34;4955875;28;20203;-76
2022/10/26 07:41:20;;;;;;;17.97;13.03;;;;;;;9.77;100.00;101742.19;4951149;28;20224;-75
2022/10/26 07:43:47;;;;;;;19.20;14.47;;;;;;;9.96;100.00;101736.94;4952291;28;20220;-75
2022/10/26 07:46:12;;;;;;;17.50;13.73;;;;;;;10.07;100.00;101739.09;4951921;28;20220;-76
2022/10/26 07:48:40;;;;;;;17.10;12.53;;;;;;;10.12;100.00;101735.00;4943467;28;20243;-76
2022/10/26 07:51:05;;;;;;;16.93;13.63;;;;;;;10.32;100.00;101728.03;4947367;29;20622;-76
2022/10/26 07:53:31;;;;;;;18.00;13.30;;;;;;;10.52;100.00;101729.56;4954113;28;20262;-76
2022/10/26 07:55:57;;;;;;;19.73;12.50;;;;;;;10.68;100.00;101724.13;4950472;28;20194;-76
2022/10/26 07:58:25;;;;;;;15.97;11.93;;;;;;;10.76;100.00;101731.25;4951034;28;20186;-76
2022/10/26 08:00:51;;;;;;;16.37;12.47;;;;;;;10.78;99.75;101731.31;4950247;28;20201;-76
2022/10/26 08:03:17;;;;;;;19.60;12.80;;;;;;;10.96;99.66;101725.06;4950104;28;20248;-76
2022/10/26 08:05:54;;;;;;;17.80;12.83;;;;;;;11.25;99.12;101731.13;4949915;28;20213;-76
2022/10/26 08:08:20;;;;;;;17.23;12.20;;;;;;;11.26;98.28;101732.84;4946197;28;20185;-76
2022/10/26 08:10:46;;;;;;;15.50;12.10;;;;;;;11.43;97.77;101742.78;4932664;29;20263;-76
2022/10/26 08:13:12;;;;;;;15.87;11.57;;;;;;;11.73;96.24;101738.59;4949044;29;20193;-76
2022/10/26 08:15:38;;;;;;;14.13;10.20;;;;;;;11.80;95.64;101740.50;4950518;28;20197;-76
2022/10/26 08:18:04;;;;;;;12.73;10.47;;;;;;;12.19;94.35;101740.75;4956413;28;20337;-76
2022/10/26 08:20:30;;;;;;;14.00;10.67;;;;;;;12.02;94.33;101731.72;4945516;28;20261;-76
2022/10/26 08:22:56;;;;;;;12.70;9.97;;;;;;;12.34;93.36;101731.75;4948527;28;20217;-76
2022/10/26 08:25:21;;;;;;;10.87;9.73;;;;;;;12.42;91.92;101734.53;4947317;29;20229;-77
2022/10/26 08:27:48;;;;;;;12.93;9.70;;;;;;;12.39;92.48;101735.31;4946934;29;20200;-76
2022/10/26 08:30:13;;;;;;;11.97;9.67;;;;;;;12.69;91.13;101733.56;4948364;29;20194;-77
2022/10/26 08:32:39;;;;;;;10.83;8.67;;;;;;;12.95;90.01;101737.59;4948468;28;20705;-77
2022/10/26 08:35:05;;;;;;;10.53;7.93;;;;;;;13.26;88.59;101735.81;4948845;29;20200;-77
2022/10/26 08:37:30;;;;;;;8.47;7.57;;;;;;;13.28;87.97;101726.41;4950589;28;20201;-75
2022/10/26 08:39:55;;;;;;;8.63;7.20;;;;;;;13.60;86.96;101736.56;4951406;28;20193;-77
2022/10/26 08:42:29;;;;;;;11.80;7.37;;;;;;;13.93;86.19;101734.69;4950209;28;20220;-77
2022/10/26 08:45:02;;;;;;;8.05;6.53;;;;;;;15.31;80.06;101719.09;4950216;29;20690;-77
2022/10/26 08:47:38;;;;;;;7.00;6.30;;;;;;;17.50;71.49;101707.56;4920095;28;20229;-75
2022/10/26 08:50:11;;;;;;;7.68;5.97;;;;;;;19.17;64.92;101696.59;4939151;29;20248;-77
2022/10/26 08:52:48;;;;;;;8.13;5.63;;;;;;;20.25;59.84;101703.16;4945683;29;20208;-77
2022/10/26 08:55:18;;;;;;;7.35;5.78;;;;;;;20.15;58.80;101699.78;4940400;29;20184;-76
2022/10/26 08:57:49;;;;;;;5.72;5.22;;;;;;;21.30;56.17;101689.28;4946963;28;20200;-76
2022/10/26 09:00:19;;;;;;;6.90;5.38;;;;;;;21.88;54.05;101682.53;4949436;29;20251;-77
2022/10/26 09:02:48;;;;;;;6.15;5.32;;;;;;;22.74;51.43;101673.41;4948882;28;20209;-74
2022/10/26 09:05:16;;;;;;;6.40;5.13;;;;;;;23.31;49.87;101673.25;4947188;28;20224;-75
2022/10/26 09:07:52;;;;;;;7.07;5.93;;;;;;;23.58;48.26;101663.97;4938684;28;20181;-76
2022/10/26 09:10:39;;;;;;;8.05;5.60;;;;;;;24.00;47.24;101670.94;4939937;29;20201;-76
2022/10/26 09:13:26;;;;;;;6.53;5.93;;;;;;;23.71;47.95;101676.75;4939919;29;20662;-75
2022/10/26 09:16:16;;;;;;;7.00;6.07;;;;;;;24.24;47.64;101663.41;4947781;29;20189;-76
2022/10/26 09:18:41;;;;;;;6.43;5.85;;;;;;;24.07;46.87;101662.91;4946413;29;20209;-76
2022/10/26 09:21:21;;;;;;;9.30;6.20;;;;;;;24.86;46.20;101667.13;4945212;28;20594;-75
2022/10/26 09:23:53;;;;;;;8.90;6.38;;;;;;;25.09;44.63;101659.50;4960072;28;20254;-75
2022/10/26 09:26:28;;;;;;;6.30;5.65;;;;;;;24.32;45.28;101660.59;4952069;29;20209;-76
2022/10/26 09:29:00;;;;;;;6.00;5.40;;;;;;;25.14;45.28;101649.75;4952473;28;20188;-76
2022/10/26 09:31:26;;;;;;;8.65;6.00;;;;;;;24.35;46.26;101656.13;4946364;29;21136;-76
2022/10/26 09:33:52;;;;;;;11.40;6.10;;;;;;;24.24;47.29;101654.66;4953578;28;20284;-76
2022/10/26 09:36:20;;;;;;;6.60;5.90;;;;;;;23.78;47.00;101657.44;4954746;28;20235;-76
2022/10/26 09:39:02;;;;;;;6.05;5.45;;;;;;;25.84;44.67;101639.81;4951862;29;20201;-76
2022/10/26 09:42:00;;;;;;;6.30;5.70;;;;;;;25.91;44.19;101640.50;4951157;29;20689;-76
2022/10/26 09:44:41;;;;;;;8.27;5.90;;;;;;;25.25;44.21;101631.94;4943210;28;20264;-74
2022/10/26 09:47:18;;;;;;;7.07;5.65;;;;;;;27.04;41.96;101621.84;4951505;29;20232;-74
2022/10/26 09:49:54;;;;;;;6.00;5.47;;;;;;;27.48;40.61;101621.97;4927745;28;20239;-75
2022/10/26 09:52:20;;;;;;;5.80;5.20;;;;;;;26.52;41.59;101632.41;4948902;29;20232;-74
2022/10/26 09:54:45;;;;;;;7.63;4.80;;;;;;;27.88;39.22;101630.09;4953776;28;20862;-74
2022/10/26 09:57:17;;;;;;;6.00;5.22;;;;;;;28.13;38.51;101636.09;4953579;28;20191;-75
2022/10/26 09:59:46;;;;;;;8.27;5.38;;;;;;;28.55;37.91;101638.78;4951108;29;20272;-75
2022/10/26 10:02:44;;;;;;;8.13;5.30;;;;;;;28.21;37.98;101630.50;4953659;28;20201;-75
2022/10/26 10:05:24;;;;;;;6.43;5.50;;;;;;;28.75;38.00;101633.50;4951691;29;20248;-74
2022/10/26 10:07:50;;;;;;;8.77;5.05;;;;;;;29.97;35.85;101624.38;4932869;29;20857;-75
2022/10/26 10:10:17;;;;;;;5.68;5.13;;;;;;;29.46;36.04;101621.50;4952163;29;20201;-75
2022/10/26 10:12:44;;;;;;;5.68;4.72;;;;;;;31.10;34.00;101618.63;4948527;29;20217;-74
2022/10/26 10:15:21;;;;;;;6.07;5.47;;;;;;;31.38;34.29;101626.84;4952542;28;20268;-74
2022/10/26 10:17:51;;;;;;;6.40;5.10;;;;;;;30.77;34.23;101616.88;4953032;28;20189;-74
2022/10/26 10:20:20;;;;;;;8.20;5.03;;;;;;;31.77;33.05;101626.50;4953758;28;20197;-74
2022/10/26 10:22:53;;;;;;;6.88;5.03;;;;;;;31.08;33.24;101623.13;4953258;28;20691;-74
2022/10/26 10:25:35;;;;;;;7.63;4.75;;;;;;;31.92;32.15;101622.97;4951340;29;20617;-74
2022/10/26 10:28:18;;;;;;;5.53;5.03;;;;;;;32.10;32.01;101633.41;4952133;28;20197;-73
2022/10/26 10:31:01;;;;;;;7.47;5.22;;;;;;;33.26;31.47;101626.41;4949492;29;20192;-74
2022/10/26 10:33:40;;;;;;;7.90;5.18;;;;;;;32.02;32.32;101629.44;4949193;28;20252;-75
2022/10/26 10:36:14;;;;;;;6.03;4.70;;;;;;;33.38;31.34;101617.72;4953723;28;20260;-74
2022/10/26 10:38:42;;;;;;;6.35;5.28;;;;;;;32.16;31.38;101619.78;4952232;29;20235;-74
2022/10/26 10:41:28;;;;;;;6.75;4.85;;;;;;;34.13;30.44;101613.69;4948802;28;20233;-74
2022/10/26 10:44:06;;;;;;;6.35;5.47;;;;;;;34.35;29.71;101621.97;4950279;29;20196;-74
2022/10/26 10:46:32;;;;;;;5.35;4.85;;;;;;;34.55;28.82;101615.31;4947651;29;20268;-74
2022/10/26 10:49:03;;;;;;;6.53;4.90;;;;;;;32.68;31.21;101622.94;4931255;28;20233;-74
2022/10/26 10:51:35;;;;;;;4.97;4.45;;;;;;;34.95;28.95;101615.16;4946737;28;20233;-74
2022/10/26 10:54:01;;;;;;;5.43;4.93;;;;;;;35.13;28.35;101624.53;4951403;29;20197;-74
2022/10/26 10:56:41;;;;;;;5.57;5.00;;;;;;;33.83;29.31;101626.31;4950022;28;20732;-74
2022/10/26 10:59:30;;;;;;;5.93;4.70;;;;;;;35.33;28.26;101618.69;4951187;29;20188;-74
2022/10/26 11:02:05;;;;;;;5.03;4.53;;;;;;;33.74;30.22;101626.88;4953288;28;20224;-74
2022/10/26 11:04:55;;;;;;;5.30;4.68;;;;;;;34.25;29.36;101625.31;4950069;29;20625;-74
2022/10/26 11:07:23;;;;;;;5.65;4.47;;;;;;;34.82;28.42;101621.44;4952166;29;20204;-74
2022/10/26 11:09:53;;;;;;;4.63;4.22;;;;;;;36.75;26.36;101612.44;4951686;29;20197;-74
2022/10/26 11:12:25;;;;;;;5.93;4.05;;;;;;;37.37;25.72;101606.69;4953026;28;20236;-74
2022/10/26 11:15:02;;;;;;;4.90;4.47;;;;;;;37.17;26.32;101605.59;4952104;29;20288;-74
2022/10/26 11:17:48;;;;;;;5.55;4.15;;;;;;;37.08;25.89;101612.50;4953102;28;20195;-74
2022/10/26 11:20:21;;;;;;;4.10;3.60;;;;;;;36.90;26.45;101624.63;4950608;29;20228;-74
2022/10/26 11:23:07;;;;;;;4.97;4.47;;;;;;;37.42;25.70;101613.34;4949196;28;20682;-74
2022/10/26 11:26:10;;;;;;;5.50;4.07;;;;;;;36.41;26.57;101626.66;4952879;28;20211;-74
2022/10/26 11:28:58;;;;;;;4.82;4.40;;;;;;;36.65;27.90;101619.44;4952866;29;20201;-74
2022/10/26 11:31:35;;;;;;;6.03;4.10;;;;;;;35.28;28.64;101622.63;4943775;29;20555;-74
2022/10/26 11:34:19;;;;;;;5.22;4.50;;;;;;;33.37;31.07;101631.97;4951436;28;20545;-74